Time;durP1;ratioP1;P1;durP2;ratioP2;P2;SDS_P1;SDS_P2;PMS_P1;PMS_P2;Temp;Humidity;BMP_temperature;BMP_pressure;BME280_temperature;BME280_humidity;BME280_pressure;Samples;Min_cycle;Max_cycle;Signal;HPM_P1;HPM_P2
2022/05/19 00:02:04;;;;;;;;;12.67;12.67;;;;;24.50;68.46;101305.91;5081201;28;46387;-67
2022/05/19 00:04:30;;;;;;;;;11.00;9.67;;;;;24.57;66.81;101301.13;5076134;28;45328;-67
2022/05/19 00:06:56;;;;;;;;;11.33;10.00;;;;;24.63;67.32;101306.63;5069116;28;45615;-67
2022/05/19 00:09:21;;;;;;;;;14.00;13.00;;;;;24.60;67.46;101307.09;5071961;28;45500;-67
2022/05/19 00:11:48;;;;;;;;;10.00;10.00;;;;;24.52;64.29;101321.28;5068296;28;46042;-68
2022/05/19 00:14:14;;;;;;;;;12.00;10.33;;;;;24.54;65.50;101305.25;5075754;28;45404;-68
2022/05/19 00:16:40;;;;;;;;;11.00;9.67;;;;;24.61;65.94;101303.25;5070744;27;45420;-68
2022/05/19 00:19:06;;;;;;;;;12.33;11.67;;;;;24.68;65.49;101298.50;5073940;28;45153;-68
2022/05/19 00:21:32;;;;;;;;;16.67;12.67;;;;;24.60;69.05;101290.44;5070291;28;46089;-67
2022/05/19 00:23:57;;;;;;;;;11.00;10.00;;;;;24.49;68.57;101282.81;5070923;28;45377;-67
2022/05/19 00:26:23;;;;;;;;;12.00;12.00;;;;;24.43;68.89;101279.03;5071457;27;45367;-66
2022/05/19 00:28:48;;;;;;;;;16.67;14.00;;;;;24.44;67.28;101280.75;5069600;27;45271;-66
2022/05/19 00:31:15;;;;;;;;;12.67;10.33;;;;;24.31;69.31;101280.84;5079378;27;46325;-67
2022/05/19 00:33:42;;;;;;;;;13.33;12.33;;;;;24.27;69.33;101267.63;5081765;27;45442;-66
2022/05/19 00:36:13;;;;;;;;;12.00;12.00;;;;;24.18;68.48;101263.41;5082648;27;45317;-67
2022/05/19 00:38:38;;;;;;;;;14.33;10.33;;;;;24.16;69.29;101269.19;5070413;27;45371;-67
2022/05/19 00:41:04;;;;;;;;;13.00;11.00;;;;;24.10;69.00;101266.47;5081716;27;46332;-67
2022/05/19 00:43:35;;;;;;;;;12.33;12.00;;;;;24.11;68.25;101262.63;5070200;27;45404;-67
2022/05/19 00:46:31;;;;;;;;;12.00;11.25;;;;;24.04;68.54;101245.97;5074350;28;45279;-67
2022/05/19 00:49:06;;;;;;;;;15.33;11.67;;;;;24.03;67.77;101247.94;5073899;28;45316;-67
2022/05/19 00:51:41;;;;;;;;;10.67;9.67;;;;;24.00;68.67;101240.03;5072530;28;45458;-67
2022/05/19 00:54:11;;;;;;;;;10.00;10.00;;;;;24.04;67.67;101235.72;5073347;28;45506;-67
2022/05/19 00:56:44;;;;;;;;;9.67;9.67;;;;;24.04;68.37;101241.28;5076829;28;45223;-67
2022/05/19 00:59:14;;;;;;;;;12.00;11.33;;;;;24.03;68.02;101233.22;5080420;27;45402;-67
2022/05/19 01:01:42;;;;;;;;;12.33;12.33;;;;;24.04;67.87;101227.41;5077511;28;45608;-67
2022/05/19 01:04:19;;;;;;;;;11.67;10.33;;;;;24.06;68.04;101230.81;5078544;28;45333;-68
2022/05/19 01:06:47;;;;;;;;;14.33;14.33;;;;;24.02;66.33;101223.19;5068076;28;45303;-67
2022/05/19 01:09:15;;;;;;;;;11.67;11.00;;;;;23.99;68.65;101213.34;5075610;28;47951;-67
2022/05/19 01:11:41;;;;;;;;;13.67;12.00;;;;;23.97;69.12;101212.72;5085764;27;47388;-67
2022/05/19 01:14:07;;;;;;;;;13.00;13.00;;;;;23.95;67.34;101202.94;5073022;28;45581;-67
2022/05/19 01:16:32;;;;;;;;;12.67;12.67;;;;;23.97;68.21;101212.72;5070508;27;45342;-67
2022/05/19 01:18:59;;;;;;;;;12.33;10.67;;;;;23.86;67.55;101196.81;5073654;27;45512;-67
2022/05/19 01:21:27;;;;;;;;;14.67;13.00;;;;;23.98;68.42;101211.66;5074401;27;46653;-67
2022/05/19 01:24:05;;;;;;;;;13.00;11.00;;;;;23.97;67.46;101207.16;5072676;28;45246;-67
2022/05/19 01:26:41;;;;;;;;;13.00;11.33;;;;;24.00;68.12;101217.84;5073132;28;45416;-67
2022/05/19 01:29:07;;;;;;;;;20.33;16.33;;;;;23.94;69.13;101215.13;5071103;27;45513;-67
2022/05/19 01:31:43;;;;;;;;;5.33;4.67;;;;;23.79;67.70;101184.91;5070596;27;45456;-67
2022/05/19 01:34:09;;;;;;;;;13.00;13.00;;;;;23.91;68.90;101207.22;5077436;28;45443;-67
2022/05/19 01:36:36;;;;;;;;;15.33;13.33;;;;;23.89;67.94;101215.78;5081686;28;45369;-67
2022/05/19 01:39:07;;;;;;;;;10.33;10.33;;;;;23.86;68.84;101212.63;5077754;27;45906;-67
2022/05/19 01:41:38;;;;;;;;;18.67;18.33;;;;;23.92;69.15;101209.78;5079862;27;45482;-67
2022/05/19 01:44:21;;;;;;;;;14.67;14.00;;;;;23.90;67.80;101206.38;5077078;28;45447;-67
2022/05/19 01:46:54;;;;;;;;;12.33;11.33;;;;;23.92;68.68;101209.78;5075856;28;45387;-68
2022/05/19 01:49:37;;;;;;;;;13.33;12.00;;;;;23.90;67.31;101200.81;5078328;28;45317;-68
2022/05/19 01:52:05;;;;;;;;;16.67;13.33;;;;;23.99;68.63;101207.81;5074114;28;45382;-67
2022/05/19 01:54:55;;;;;;;;;15.33;14.00;;;;;23.95;68.89;101211.28;5076620;28;45320;-67
2022/05/19 01:57:28;;;;;;;;;13.00;13.00;;;;;24.00;68.36;101215.06;5084222;28;45429;-67
2022/05/19 02:00:12;;;;;;;;;16.33;14.67;;;;;23.96;66.94;101205.47;5078237;27;45223;-67
2022/05/19 02:02:49;;;;;;;;;12.33;11.33;;;;;24.03;68.48;101205.44;5067906;27;46156;-67
2022/05/19 02:05:30;;;;;;;;;12.33;12.33;;;;;24.03;67.90;101200.75;5074190;28;45299;-67
2022/05/19 02:07:58;;;;;;;;;14.33;13.67;;;;;24.08;67.42;101213.09;5080330;27;45587;-67
2022/05/19 02:10:30;;;;;;;;;14.67;12.67;;;;;24.05;67.23;101215.22;5100377;27;45267;-68
2022/05/19 02:12:59;;;;;;;;;16.00;13.33;;;;;24.06;67.82;101211.38;5067495;28;46219;-67
2022/05/19 02:15:28;;;;;;;;;12.67;12.67;;;;;24.11;67.40;101212.66;5081507;27;45246;-67
2022/05/19 02:17:55;;;;;;;;;13.00;13.00;;;;;24.11;66.86;101204.31;5065773;27;45349;-67
2022/05/19 02:20:25;;;;;;;;;16.00;14.33;;;;;24.09;68.03;101212.00;5095911;27;45686;-67
2022/05/19 02:22:50;;;;;;;;;16.67;13.33;;;;;24.06;67.39;101213.31;5066696;28;46431;-67
2022/05/19 02:25:29;;;;;;;;;12.67;11.33;;;;;24.07;66.91;101212.22;5077625;27;45222;-67
2022/05/19 02:28:02;;;;;;;;;13.67;13.67;;;;;24.13;66.98;101216.88;5068783;28;45444;-67
2022/05/19 02:30:30;;;;;;;;;13.00;13.00;;;;;24.06;67.00;101207.75;5075998;28;45804;-68
2022/05/19 02:32:56;;;;;;;;;18.00;14.67;;;;;24.06;67.42;101204.97;5067351;28;45669;-67
2022/05/19 02:35:22;;;;;;;;;12.67;12.67;;;;;24.05;67.65;101208.81;5082815;27;45381;-67
2022/05/19 02:37:48;;;;;;;;;15.75;13.25;;;;;24.06;67.12;101211.38;5088828;27;45306;-67
2022/05/19 02:40:17;;;;;;;;;13.33;13.00;;;;;23.99;68.11;101202.25;5080877;27;45307;-67
2022/05/19 02:42:42;;;;;;;;;11.50;11.50;;;;;23.99;67.59;101212.50;5071478;27;46291;-68
2022/05/19 02:45:09;;;;;;;;;14.33;13.00;;;;;24.00;68.38;101208.66;5081275;27;45277;-67
2022/05/19 02:47:34;;;;;;;;;14.67;13.67;;;;;23.99;66.66;101196.72;5071449;27;45444;-67
2022/05/19 02:50:00;;;;;;;;;16.67;15.00;;;;;24.04;67.89;101210.75;5079765;27;45305;-68
2022/05/19 02:52:26;;;;;;;;;13.67;12.33;;;;;24.00;67.84;101203.97;5071153;27;45446;-67
2022/05/19 02:54:51;;;;;;;;;15.00;13.67;;;;;24.01;67.15;101202.88;5069789;28;45238;-68
2022/05/19 02:57:17;;;;;;;;;13.67;13.00;;;;;24.09;67.42;101214.78;5071855;27;45262;-68
2022/05/19 02:59:43;;;;;;;;;14.00;14.00;;;;;24.08;66.74;101201.97;5079756;27;45380;-68
2022/05/19 03:02:09;;;;;;;;;13.33;13.33;;;;;24.05;68.37;101206.91;5071379;28;46636;-67
2022/05/19 03:04:34;;;;;;;;;17.00;15.50;;;;;24.01;68.15;101207.59;5073403;28;45254;-67
2022/05/19 03:07:00;;;;;;;;;14.33;13.00;;;;;24.00;66.93;101214.22;5070140;28;45488;-67
2022/05/19 03:09:26;;;;;;;;;15.50;15.00;;;;;23.95;67.84;101214.91;5079440;28;45222;-67
2022/05/19 03:11:51;;;;;;;;;6.67;6.67;;;;;23.95;67.49;101212.13;5071280;27;45289;-67
2022/05/19 03:14:16;;;;;;;;;14.33;14.33;;;;;23.96;66.73;101221.31;5076213;28;45999;-67
2022/05/19 03:16:43;;;;;;;;;16.33;14.33;;;;;23.93;67.39;101211.50;5071512;28;45321;-67
2022/05/19 03:19:12;;;;;;;;;14.33;14.33;;;;;23.88;67.18;101208.53;5074366;27;45570;-67
2022/05/19 03:21:38;;;;;;;;;10.33;10.33;;;;;23.89;65.24;101210.22;5070329;27;46003;-67
2022/05/19 03:24:03;;;;;;;;;14.67;14.67;;;;;23.97;66.51;101206.31;5071721;28;45242;-67
2022/05/19 03:26:29;;;;;;;;;15.33;15.33;;;;;23.96;66.24;101194.38;5072212;28;45342;-65
2022/05/19 03:28:54;;;;;;;;;13.33;12.33;;;;;23.92;67.13;101198.69;5074168;28;45555;-68
2022/05/19 03:31:19;;;;;;;;;14.33;14.33;;;;;23.95;67.00;101203.81;5099339;27;47080;-68
2022/05/19 03:33:45;;;;;;;;;15.67;15.67;;;;;23.89;66.61;101190.78;5072412;28;45213;-68
2022/05/19 03:36:11;;;;;;;;;13.33;13.33;;;;;23.94;66.64;101202.09;5082726;27;45384;-68
2022/05/19 03:38:36;;;;;;;;;16.33;16.33;;;;;23.95;65.97;101214.03;5087324;27;45625;-69
2022/05/19 03:41:03;;;;;;;;;12.67;11.67;;;;;24.00;66.11;101200.34;5081503;27;45353;-68
2022/05/19 03:43:28;;;;;;;;;15.33;14.00;;;;;23.98;66.39;101206.09;5069840;27;45262;-66
2022/05/19 03:45:53;;;;;;;;;14.00;13.00;;;;;23.97;65.97;101209.94;5080416;27;45362;-66
2022/05/19 03:48:19;;;;;;;;;13.67;12.33;;;;;23.94;66.16;101207.66;5085317;27;45532;-66
2022/05/19 03:50:46;;;;;;;;;13.67;12.00;;;;;23.95;66.21;101192.69;5094768;27;46957;-66
2022/05/19 03:53:12;;;;;;;;;9.00;9.00;;;;;23.96;65.46;101205.47;5067990;27;45230;-67
2022/05/19 03:55:39;;;;;;;;;12.00;12.00;;;;;23.92;66.30;101201.47;5078096;28;45249;-66
2022/05/19 03:58:05;;;;;;;;;28.25;26.25;;;;;23.94;66.16;101202.09;5066997;28;45367;-66
2022/05/19 04:00:31;;;;;;;;;14.00;14.00;;;;;23.96;66.06;101204.66;5076436;27;46134;-66
2022/05/19 04:02:58;;;;;;;;;16.00;14.33;;;;;24.01;65.40;101208.44;5076652;28;45407;-67
2022/05/19 04:05:25;;;;;;;;;13.33;13.33;;;;;24.00;65.32;101209.50;5074543;27;45468;-66
2022/05/19 04:07:50;;;;;;;;;14.33;14.33;;;;;23.99;65.92;101205.03;5063391;28;45493;-67
2022/05/19 04:10:16;;;;;;;;;14.33;14.00;;;;;23.97;65.28;101212.72;5080890;28;46114;-67
2022/05/19 04:12:43;;;;;;;;;15.00;14.67;;;;;23.99;65.60;101215.28;5063168;28;45521;-66
2022/05/19 04:15:09;;;;;;;;;17.33;15.67;;;;;24.00;65.16;101212.28;5081191;28;45270;-66
2022/05/19 04:17:34;;;;;;;;;18.33;15.67;;;;;23.99;65.68;101216.13;5062108;28;45284;-67
2022/05/19 04:20:01;;;;;;;;;19.67;17.00;;;;;23.97;64.81;101211.88;5077397;28;45406;-66
2022/05/19 04:22:27;;;;;;;;;17.33;16.00;;;;;23.95;64.66;101206.56;5063263;28;45262;-66
2022/05/19 04:24:53;;;;;;;;;16.00;14.33;;;;;24.03;64.91;101211.84;5076631;28;45298;-67
2022/05/19 04:27:18;;;;;;;;;15.33;13.67;;;;;24.02;64.65;101215.69;5064457;28;45326;-67
2022/05/19 04:29:43;;;;;;;;;16.67;14.00;;;;;23.98;65.19;101203.31;5077978;27;45380;-68
2022/05/19 04:32:09;;;;;;;;;12.67;12.67;;;;;23.93;64.68;101203.16;5074996;28;45424;-66
2022/05/19 04:34:34;;;;;;;;;18.00;15.67;;;;;23.99;64.04;101220.84;5076433;28;45512;-67
2022/05/19 04:37:00;;;;;;;;;13.67;13.00;;;;;23.97;64.81;101211.88;5075538;28;45464;-67
2022/05/19 04:39:25;;;;;;;;;14.33;14.33;;;;;23.95;63.61;101219.59;5076139;28;45967;-67
2022/05/19 04:41:50;;;;;;;;;18.00;14.33;;;;;23.97;64.14;101223.81;5073803;27;45562;-67
2022/05/19 04:44:19;;;;;;;;;16.67;16.67;;;;;23.97;65.13;101214.66;5079289;28;45431;-67
2022/05/19 04:46:44;;;;;;;;;16.33;15.33;;;;;24.08;63.83;101218.63;5073078;27;45271;-67
2022/05/19 04:49:09;;;;;;;;;12.00;12.00;;;;;24.11;63.88;101223.75;5073919;28;45403;-67
2022/05/19 04:51:35;;;;;;;;;13.33;13.00;;;;;24.17;64.20;101223.69;5062345;27;45245;-66
2022/05/19 04:54:00;;;;;;;;;16.33;14.00;;;;;24.18;64.18;101241.22;5075418;28;45408;-67
2022/05/19 04:56:26;;;;;;;;;3.67;3.33;;;;;24.16;63.59;101246.97;5071772;27;45515;-67
2022/05/19 04:58:51;;;;;;;;;14.33;14.33;;;;;24.21;63.46;101246.31;5077954;27;46045;-67
2022/05/19 05:01:16;;;;;;;;;14.67;10.00;;;;;24.27;65.32;101262.06;5068800;27;45244;-68
2022/05/19 05:03:41;;;;;;;;;15.33;15.33;;;;;24.18;63.55;101268.97;5070383;28;45343;-67
2022/05/19 05:06:07;;;;;;;;;20.00;14.67;;;;;24.29;63.35;101273.81;5088907;27;45400;-68
2022/05/19 05:08:32;;;;;;;;;20.00;17.00;;;;;24.29;63.00;101271.88;5075999;27;45374;-68
2022/05/19 05:10:57;;;;;;;;;16.33;15.00;;;;;24.34;62.42;101268.44;5074857;27;45378;-68
2022/05/19 05:13:23;;;;;;;;;16.00;16.00;;;;;24.41;63.35;101274.78;5074388;28;45359;-67
2022/05/19 05:15:48;;;;;;;;;18.75;18.75;;;;;24.35;62.42;101276.53;5074661;28;45467;-68
2022/05/19 05:18:14;;;;;;;;;15.67;15.67;;;;;24.48;62.60;101270.00;5062696;28;46002;-68
2022/05/19 05:20:42;;;;;;;;;16.00;13.33;;;;;24.46;62.08;101276.88;5073184;27;45307;-68
2022/05/19 05:23:07;;;;;;;;;15.00;15.00;;;;;24.56;62.40;101269.72;5072343;28;45237;-68
2022/05/19 05:25:33;;;;;;;;;17.67;16.00;;;;;24.63;62.72;101269.66;5072292;28;45220;-68
2022/05/19 05:27:58;;;;;;;;;13.67;13.67;;;;;24.65;61.76;101292.53;5077729;27;46837;-68
2022/05/19 05:30:24;;;;;;;;;13.67;13.67;;;;;24.72;61.10;101330.28;5079821;27;45390;-69
2022/05/19 05:32:50;;;;;;;;;13.33;13.33;;;;;24.71;60.79;101319.38;5086441;27;45219;-68
2022/05/19 05:35:16;;;;;;;;;14.33;14.00;;;;;24.68;61.68;101305.97;5075328;28;45469;-69
2022/05/19 05:37:42;;;;;;;;;13.67;13.67;;;;;24.56;60.95;101307.78;5066209;27;46381;-69
2022/05/19 05:40:10;;;;;;;;;12.67;12.67;;;;;24.62;61.15;101326.34;5091181;27;45721;-69
2022/05/19 05:42:37;;;;;;;;;19.00;17.00;;;;;24.51;60.54;101333.47;5068313;28;45436;-69
2022/05/19 05:45:03;;;;;;;;;14.67;14.33;;;;;24.62;61.74;101318.81;5069344;28;45470;-69
2022/05/19 05:47:29;;;;;;;;;16.00;15.33;;;;;24.67;62.00;101318.16;5068391;27;46264;-67
2022/05/19 05:49:54;;;;;;;;;15.00;15.00;;;;;24.68;61.17;101325.41;5073807;28;45297;-67
2022/05/19 05:52:20;;;;;;;;;14.33;12.33;;;;;24.81;60.77;101326.16;5067099;27;45315;-67
2022/05/19 05:54:45;;;;;;;;;16.00;16.00;;;;;24.84;60.44;101319.25;5070348;28;45368;-67
2022/05/19 05:57:11;;;;;;;;;16.00;14.00;;;;;24.83;60.08;101320.38;5071781;27;45368;-67
2022/05/19 05:59:36;;;;;;;;;11.00;11.00;;;;;24.82;60.09;101311.19;5087548;27;45393;-68
2022/05/19 06:02:01;;;;;;;;;12.67;12.33;;;;;24.84;60.38;101319.25;5066007;28;45137;-68
2022/05/19 06:04:27;;;;;;;;;16.33;16.33;;;;;24.95;60.02;101329.69;5070561;28;45390;-68
2022/05/19 06:06:52;;;;;;;;;18.67;14.67;;;;;24.71;60.16;101311.06;5068403;28;45445;-68
2022/05/19 06:09:17;;;;;;;;;18.33;16.67;;;;;24.84;60.68;101303.44;5069284;28;45457;-68
2022/05/19 06:11:43;;;;;;;;;14.33;14.33;;;;;24.80;60.42;101293.88;5072004;27;45282;-68
2022/05/19 06:14:09;;;;;;;;;8.33;5.67;;;;;25.08;59.99;101304.50;5068416;28;45316;-68
2022/05/19 06:16:34;;;;;;;;;14.67;14.33;;;;;25.24;59.75;101297.50;5071804;28;46245;-69
2022/05/19 06:19:00;;;;;;;;;18.67;16.33;;;;;25.29;59.30;101306.00;5071020;27;45430;-69
2022/05/19 06:21:25;;;;;;;;;15.33;14.33;;;;;25.28;59.10;101309.03;5072082;27;45755;-69
2022/05/19 06:23:51;;;;;;;;;17.00;14.00;;;;;25.28;58.48;101309.84;5065243;28;45387;-70
2022/05/19 06:26:16;;;;;;;;;19.00;16.33;;;;;25.18;58.94;101309.56;5071146;28;45512;-70
2022/05/19 06:28:42;;;;;;;;;24.25;20.00;;;;;25.23;58.89;101315.25;5071419;27;45369;-70
2022/05/19 06:31:07;;;;;;;;;18.33;15.00;;;;;25.40;59.32;101316.34;5074146;28;45214;-69
2022/05/19 06:33:35;;;;;;;;;15.67;15.33;;;;;25.43;59.12;101318.66;5071775;27;45290;-69
2022/05/19 06:36:03;;;;;;;;;20.00;18.67;;;;;25.37;59.58;101313.19;5078545;28;46858;-69
2022/05/19 06:38:28;;;;;;;;;17.67;17.67;;;;;25.45;59.65;101312.88;5084628;27;45423;-69
2022/05/19 06:42:00;;;;;;;;;22.00;19.75;;;;;25.31;59.74;101317.75;5080343;27;45442;-69
2022/05/19 06:43:40;;;;;;;;;22.00;20.50;;;;;25.39;60.51;101316.59;5071975;27;45598;-69
2022/05/19 06:46:05;;;;;;;;;21.50;20.25;;;;;25.38;59.65;101314.88;5092616;27;47190;-70
2022/05/19 06:48:30;;;;;;;;;14.00;14.00;;;;;25.33;60.69;101320.28;5066815;28;45337;-69
2022/05/19 06:50:56;;;;;;;;;21.25;17.75;;;;;25.33;60.31;101321.16;5075151;27;45362;-69
2022/05/19 06:53:21;;;;;;;;;19.33;18.67;;;;;25.37;59.28;101315.97;5068986;28;45573;-69
2022/05/19 06:55:47;;;;;;;;;18.67;18.67;;;;;25.40;59.35;101324.69;5074459;27;45501;-69
2022/05/19 06:58:12;;;;;;;;;19.25;17.00;;;;;25.45;59.84;101330.41;5064426;27;45256;-69
2022/05/19 07:00:37;;;;;;;;;18.67;17.33;;;;;25.52;60.06;101328.41;5073908;27;45333;-70
2022/05/19 07:03:03;;;;;;;;;26.25;21.75;;;;;25.61;59.89;101336.47;5064209;28;45491;-69
2022/05/19 07:05:34;;;;;;;;;26.75;25.50;;;;;25.62;59.42;101333.47;5080936;27;45404;-69
2022/05/19 07:07:59;;;;;;;;;21.00;18.50;;;;;25.46;59.47;101328.47;5065408;27;45338;-69
2022/05/19 07:10:26;;;;;;;;;21.00;18.00;;;;;25.56;59.28;101338.00;5081277;27;45341;-69
2022/05/19 07:12:52;;;;;;;;;18.50;18.00;;;;;25.35;59.64;101341.22;5063846;28;45300;-69
2022/05/19 07:15:19;;;;;;;;;19.25;19.25;;;;;25.30;60.14;101340.22;5077087;28;47240;-69
2022/05/19 07:17:45;;;;;;;;;25.25;23.75;;;;;25.37;60.02;101350.19;5063564;28;45234;-69
2022/05/19 07:22:55;;;;;;;;;25.50;19.75;;;;;25.37;61.31;101339.06;5064247;28;45460;-69
2022/05/19 07:25:21;;;;;;;;;24.00;21.00;;;;;25.34;60.45;101335.91;5089830;27;46519;-69
2022/05/19 07:27:47;;;;;;;;;18.25;18.25;;;;;25.38;60.35;101339.91;5064160;28;45183;-69
2022/05/19 07:30:14;;;;;;;;;27.75;22.75;;;;;25.32;60.22;101336.13;5095615;27;45523;-69
2022/05/19 07:32:40;;;;;;;;;25.75;24.00;;;;;25.35;61.06;101344.00;5072094;27;45439;-69
2022/05/19 07:35:07;;;;;;;;;25.50;24.00;;;;;25.27;60.32;101324.88;5078247;28;45655;-69
2022/05/19 07:37:33;;;;;;;;;28.00;23.75;;;;;25.51;59.89;101329.47;5072444;28;45238;-69
2022/05/19 07:39:58;;;;;;;;;23.25;22.50;;;;;25.58;59.64;101324.72;5071798;28;45369;-69
2022/05/19 07:42:25;;;;;;;;;22.50;21.75;;;;;25.55;59.31;101322.38;5072432;28;45230;-69
2022/05/19 07:44:51;;;;;;;;;26.25;24.00;;;;;25.70;59.50;101340.63;5075509;28;46729;-69
2022/05/19 07:47:17;;;;;;;;;22.25;20.50;;;;;25.70;58.96;101346.22;5069985;28;45259;-68
2022/05/19 07:49:43;;;;;;;;;24.00;22.25;;;;;25.73;58.57;101354.94;5067094;28;45394;-69
2022/05/19 07:52:08;;;;;;;;;27.25;27.25;;;;;25.66;58.76;101364.44;5070756;28;45345;-68
2022/05/19 07:54:34;;;;;;;;;30.25;27.00;;;;;25.83;59.14;101340.47;5072737;28;46747;-69
2022/05/19 07:57:00;;;;;;;;;22.25;20.50;;;;;26.17;58.31;101347.25;5069970;28;45474;-69
2022/05/19 07:59:26;;;;;;;;;27.25;26.75;;;;;26.22;57.70;101359.41;5072059;28;45354;-69
2022/05/19 08:01:51;;;;;;;;;26.25;22.25;;;;;26.25;58.03;101356.16;5067957;28;45401;-68
2022/05/19 08:04:18;;;;;;;;;30.25;27.50;;;;;26.45;58.21;101369.78;5062342;28;46488;-69
2022/05/19 08:06:43;;;;;;;;;23.00;21.25;;;;;26.38;57.24;101379.34;5061034;28;45255;-69
2022/05/19 08:11:54;;;;;;;;;22.50;22.50;;;;;26.73;56.01;101391.44;5066151;28;45491;-69
2022/05/19 08:17:10;;;;;;;;;18.50;16.50;;;;;26.47;57.21;101408.56;5066102;28;45251;-69
2022/05/19 08:19:37;;;;;;;;;25.25;21.50;;;;;26.38;56.16;101410.81;5074147;27;47935;-69
2022/05/19 08:22:02;;;;;;;;;21.50;21.25;;;;;26.37;55.85;101413.88;5065280;27;45251;-70
2022/05/19 08:24:30;;;;;;;;;21.25;18.00;;;;;26.06;56.10;101428.84;5076858;28;47751;-69
2022/05/19 08:26:56;;;;;;;;;20.00;20.00;;;;;26.14;56.71;101423.81;5078142;27;45324;-69
2022/05/19 08:29:21;;;;;;;;;25.00;24.75;;;;;26.39;56.11;101436.75;5073788;28;45370;-69
2022/05/19 08:31:47;;;;;;;;;20.25;19.25;;;;;26.28;56.02;101441.22;5077879;27;45590;-69
2022/05/19 08:34:13;;;;;;;;;15.00;13.50;;;;;26.54;55.14;101451.97;5074240;28;46290;-69
2022/05/19 08:36:46;;;;;;;;;23.67;21.33;;;;;26.42;55.15;101466.94;5091752;27;45463;-70
2022/05/19 08:39:13;;;;;;;;;20.00;18.67;;;;;26.63;54.94;101463.63;5074607;28;45305;-69
2022/05/19 08:41:51;;;;;;;;;21.33;18.67;;;;;26.55;54.19;101489.06;5073694;27;45472;-69
2022/05/19 08:44:29;;;;;;;;;19.33;16.33;;;;;26.39;53.81;101495.28;5074291;28;45335;-69
2022/05/19 08:46:57;;;;;;;;;12.00;11.67;;;;;26.68;53.10;101483.28;5070736;28;45494;-69
2022/05/19 08:49:36;;;;;;;;;20.00;17.00;;;;;27.03;52.18;101492.63;5073293;28;45497;-69
2022/05/19 08:52:05;;;;;;;;;16.00;13.00;;;;;27.30;51.35;101492.22;5070265;28;45411;-69
2022/05/19 08:54:32;;;;;;;;;10.33;9.33;;;;;27.33;50.46;101486.97;5075413;28;48168;-69
2022/05/19 08:57:00;;;;;;;;;17.33;16.00;;;;;27.36;51.18;101502.41;5070413;28;45326;-69
2022/05/19 08:59:44;;;;;;;;;15.00;13.67;;;;;27.52;50.38;101490.53;5070508;28;45606;-69
2022/05/19 09:02:18;;;;;;;;;12.00;11.67;;;;;27.91;48.91;101494.53;5081012;28;45603;-68
2022/05/19 09:05:11;;;;;;;;;11.33;8.00;;;;;27.63;48.60;101489.69;5074341;28;45780;-69
2022/05/19 09:08:02;;;;;;;;;15.00;14.00;;;;;27.27;49.48;101512.22;5063615;27;45477;-69
2022/05/19 09:10:52;;;;;;;;;12.00;10.67;;;;;27.19;50.59;101520.94;5079394;28;45482;-69
2022/05/19 09:13:30;;;;;;;;;10.67;9.00;;;;;27.26;49.24;101516.09;5066096;28;45365;-69
2022/05/19 09:15:55;;;;;;;;;8.67;8.33;;;;;26.97;48.99;101531.78;5068579;28;46822;-68
2022/05/19 09:18:31;;;;;;;;;7.67;7.67;;;;;27.38;48.25;101547.69;5066357;28;45405;-68
2022/05/19 09:20:57;;;;;;;;;8.67;7.33;;;;;27.36;47.68;101555.44;5071732;28;45495;-69
2022/05/19 09:23:24;;;;;;;;;12.00;9.67;;;;;27.40;48.23;101559.41;5067019;28;45552;-69
2022/05/19 09:25:57;;;;;;;;;15.00;13.00;;;;;27.28;47.99;101569.72;5081992;27;45325;-68
2022/05/19 09:28:23;;;;;;;;;11.67;11.67;;;;;26.89;47.29;101574.75;5068461;27;45385;-68
2022/05/19 09:30:52;;;;;;;;;14.50;12.50;;;;;26.78;47.80;101575.59;5080521;27;45359;-68
2022/05/19 09:33:22;;;;;;;;;16.00;16.00;;;;;26.58;48.68;101584.22;5068926;27;45261;-68
2022/05/19 09:35:55;;;;;;;;;15.67;15.33;;;;;27.25;46.69;101570.22;5070844;28;47445;-68
2022/05/19 09:38:31;;;;;;;;;15.00;13.25;;;;;26.93;47.09;101587.19;5067011;27;45514;-68
2022/05/19 09:41:29;;;;;;;;;12.33;12.33;;;;;26.59;46.67;101599.00;5081220;27;45407;-68
2022/05/19 09:43:56;;;;;;;;;12.67;11.67;;;;;26.93;46.86;101598.34;5062614;27;45381;-68
2022/05/19 09:46:22;;;;;;;;;14.33;13.00;;;;;27.09;45.89;101608.00;5075734;28;45341;-66
2022/05/19 09:48:51;;;;;;;;;11.00;11.00;;;;;27.20;45.36;101614.69;5072982;28;45425;-67
2022/05/19 09:51:19;;;;;;;;;11.00;11.00;;;;;26.23;48.13;101606.22;5075042;27;45416;-67
2022/05/19 09:53:52;;;;;;;;;10.00;10.00;;;;;26.32;47.95;101612.38;5073722;28;45262;-68
2022/05/19 09:56:21;;;;;;;;;12.67;10.33;;;;;27.06;46.23;101612.09;5070151;28;46414;-68
2022/05/19 09:58:50;;;;;;;;;8.33;7.67;;;;;27.49;45.16;101609.09;5066312;28;45875;-67
2022/05/19 10:01:29;;;;;;;;;9.67;7.33;;;;;27.51;44.46;101636.75;5071009;27;45413;-67
2022/05/19 10:03:58;;;;;;;;;7.33;7.00;;;;;27.80;44.45;101627.50;5067500;28;45346;-68
2022/05/19 10:06:47;;;;;;;;;7.00;7.00;;;;;28.39;43.33;101624.75;5076701;27;45380;-69
2022/05/19 10:09:18;;;;;;;;;7.67;7.67;;;;;28.34;42.45;101627.44;5069075;28;45724;-67
2022/05/19 10:12:01;;;;;;;;;7.33;7.00;;;;;28.46;42.37;101620.72;5073224;27;45401;-68
2022/05/19 10:14:31;;;;;;;;;7.00;6.33;;;;;28.57;41.80;101616.19;5058382;28;45696;-68
2022/05/19 10:17:21;;;;;;;;;6.33;6.33;;;;;28.43;41.97;101614.75;5069457;27;45418;-67
2022/05/19 10:20:18;;;;;;;;;4.67;4.67;;;;;28.15;41.87;101621.97;5077899;27;45327;-67
2022/05/19 10:23:09;;;;;;;;;6.00;5.00;;;;;28.32;41.74;101630.47;5074125;28;45486;-67
2022/05/19 10:25:44;;;;;;;;;8.33;5.33;;;;;28.22;42.17;101646.97;5052218;28;45465;-68
2022/05/19 10:31:31;;;;;;;;;4.33;4.00;;;;;28.27;41.79;101655.50;5083564;28;45439;-68
2022/05/19 10:34:15;;;;;;;;;5.67;4.67;;;;;28.66;40.73;101651.91;5084210;28;45312;-68
2022/05/19 10:36:43;;;;;;;;;6.33;4.00;;;;;29.03;39.66;101655.25;5076679;28;45302;-68
2022/05/19 10:39:14;;;;;;;;;7.00;5.00;;;;;29.10;38.86;101643.06;5075356;27;46777;-67
2022/05/19 10:42:07;;;;;;;;;2.33;2.00;;;;;28.82;38.30;101627.97;5066072;27;45487;-68
2022/05/19 10:45:03;;;;;;;;;7.00;5.00;;;;;28.58;39.52;101629.94;5077387;28;45371;-68
2022/05/19 10:47:37;;;;;;;;;3.00;3.00;;;;;28.94;37.99;101639.94;5071503;27;45357;-67
2022/05/19 10:50:18;;;;;;;;;6.67;3.33;;;;;28.62;37.37;101631.16;5077448;27;45472;-67
2022/05/19 10:53:08;;;;;;;;;3.33;3.00;;;;;29.15;37.63;101632.81;5068484;28;45201;-67
2022/05/19 10:55:44;;;;;;;;;4.00;4.00;;;;;29.54;36.22;101635.81;5072329;28;45451;-67
2022/05/19 10:58:16;;;;;;;;;2.00;2.00;;;;;29.17;37.43;101641.81;5067634;27;45408;-68
2022/05/19 11:01:22;;;;;;;;;2.67;1.00;;;;;28.96;37.10;101636.91;5069942;28;48383;-67
2022/05/19 11:04:24;;;;;;;;;2.33;2.33;;;;;28.91;37.51;101628.41;5069629;28;45452;-67
2022/05/19 11:07:29;;;;;;;;;5.67;5.00;;;;;29.10;37.76;101632.72;5072295;27;45219;-68
2022/05/19 11:10:13;;;;;;;;;4.67;4.67;;;;;29.56;37.28;101636.41;5080800;27;45195;-69
2022/05/19 11:13:05;;;;;;;;;3.33;2.33;;;;;29.80;36.83;101621.16;5064091;27;45370;-69
2022/05/19 11:16:17;;;;;;;;;3.00;3.00;;;;;29.37;37.46;101632.97;5078999;28;45384;-69
2022/05/19 11:18:48;;;;;;;;;4.00;2.33;;;;;29.72;36.35;101624.38;5029965;28;45677;-68
2022/05/19 11:21:23;;;;;;;;;2.00;2.00;;;;;30.07;35.08;101633.41;5073843;27;45306;-68
2022/05/19 11:24:21;;;;;;;;;4.00;4.00;;;;;29.91;35.61;101637.00;5068531;28;47217;-68
2022/05/19 11:26:57;;;;;;;;;2.00;2.00;;;;;30.31;35.42;101636.00;5069144;27;45405;-69
2022/05/19 11:29:43;;;;;;;;;1.00;1.00;;;;;30.34;34.26;101627.06;5075048;28;45556;-68
2022/05/19 11:32:22;;;;;;;;;7.00;4.33;;;;;29.55;36.13;101635.56;5093452;27;45271;-69
2022/05/19 11:35:12;;;;;;;;;6.00;3.00;;;;;29.78;36.58;101629.81;5076885;28;45556;-69
2022/05/19 11:37:50;;;;;;;;;2.67;2.67;;;;;29.68;35.31;101611.97;5072304;27;45474;-69